createdAt,value
2023-05-09T05:17:45.017Z,4.25
2023-05-09T05:22:43.936Z,5.60
2023-05-09T05:25:10.740Z,4.13
2023-05-09T05:30:07.821Z,4.28
2023-05-09T05:35:03.327Z,4.05
2023-05-09T05:37:30.290Z,4.40
2023-05-09T05:44:52.339Z,4.68
2023-05-09T05:57:08.396Z,5.15
2023-05-09T06:02:03.091Z,3.88
2023-05-09T06:04:30.620Z,3.42
2023-05-09T06:06:57.377Z,4.07
2023-05-09T06:09:24.196Z,4.20
2023-05-09T06:11:50.987Z,5.65
2023-05-09T06:14:17.641Z,3.95
2023-05-09T06:16:48.604Z,4.30
2023-05-09T06:24:16.616Z,5.55
2023-05-09T06:26:51.159Z,5.30
2023-05-09T06:31:44.778Z,4.47
2023-05-09T06:34:11.572Z,4.70
2023-05-09T06:36:38.266Z,4.88
2023-05-09T06:39:05.117Z,4.45
2023-05-09T06:43:58.888Z,4.85
2023-05-09T06:51:19.678Z,5.90
2023-05-09T06:58:40.672Z,5.88
2023-05-09T07:01:07.446Z,7.22
2023-05-09T07:08:28.278Z,7.43
2023-05-09T07:15:48.943Z,10.25
2023-05-09T07:23:09.639Z,8.18
2023-05-09T07:25:37.751Z,7.78
2023-05-09T07:28:04.593Z,7.60
2023-05-09T07:32:58.411Z,5.07
2023-05-09T07:35:25.073Z,5.82
2023-05-09T07:37:51.701Z,6.93
2023-05-09T07:40:18.626Z,7.18
2023-05-09T07:42:50.118Z,7.40
2023-05-09T07:47:45.720Z,4.00
2023-05-09T07:50:12.549Z,4.03
2023-05-09T07:52:42.004Z,5.28
2023-05-09T07:55:09.084Z,3.40
2023-05-09T08:00:02.786Z,4.00
2023-05-09T08:02:40.166Z,3.88
2023-05-09T08:05:08.081Z,3.85
2023-05-09T08:07:34.757Z,3.33
2023-05-09T08:12:28.720Z,4.22
2023-05-09T08:14:55.482Z,4.38
2023-05-09T08:19:49.052Z,4.63
2023-05-09T08:22:19.699Z,4.03
2023-05-09T08:24:46.884Z,3.53
2023-05-09T08:27:14.154Z,3.80
2023-05-09T08:29:40.842Z,3.78
2023-05-09T08:32:07.595Z,3.50
2023-05-09T08:34:37.271Z,6.68
2023-05-09T08:37:04.430Z,5.35
2023-05-09T08:39:31.563Z,4.13
2023-05-09T08:41:58.903Z,3.40
2023-05-09T08:44:26.244Z,3.45
2023-05-09T08:46:55.264Z,3.85
2023-05-09T08:49:22.307Z,3.45
2023-05-09T08:54:16.158Z,3.10
2023-05-09T08:59:09.927Z,3.25
2023-05-09T09:06:36.021Z,3.03
2023-05-09T09:14:06.750Z,3.10
2023-05-09T09:16:35.635Z,3.72
2023-05-09T09:19:03.003Z,4.55
2023-05-09T09:21:32.426Z,3.28
2023-05-09T09:23:59.101Z,3.08
2023-05-09T09:26:29.443Z,5.47
2023-05-09T09:31:27.825Z,4.00
2023-05-09T09:36:32.673Z,3.50
2023-05-09T09:39:04.894Z,3.47
2023-05-09T09:41:32.926Z,3.95
2023-05-09T09:43:59.565Z,3.50
2023-05-09T09:46:26.415Z,2.83
2023-05-09T09:48:56.879Z,3.20
2023-05-09T09:53:54.458Z,3.40
2023-05-09T09:56:22.369Z,2.97
2023-05-09T09:58:49.051Z,3.97
2023-05-09T10:01:16.956Z,3.78
2023-05-09T10:03:45.284Z,2.95
2023-05-09T10:08:41.675Z,4.05
2023-05-09T10:11:09.628Z,3.42
2023-05-09T10:13:37.573Z,3.35
2023-05-09T10:16:05.644Z,3.33
2023-05-09T10:21:05.368Z,3.58
2023-05-09T10:23:34.551Z,2.92
2023-05-09T10:28:46.370Z,2.83
2023-05-09T10:36:20.606Z,2.90
2023-05-09T10:38:47.819Z,3.00
2023-05-09T10:41:16.032Z,2.35
2023-05-09T10:46:12.012Z,2.35
2023-05-09T10:48:39.789Z,2.50
2023-05-09T10:51:06.770Z,2.38
2023-05-09T10:56:22.785Z,2.45
2023-05-09T10:58:49.604Z,4.38
2023-05-09T11:01:28.204Z,3.20
2023-05-09T11:03:59.099Z,3.35
2023-05-09T11:06:41.940Z,2.65
2023-05-09T11:09:28.988Z,3.05
2023-05-09T11:11:55.991Z,2.53
2023-05-09T11:14:29.590Z,2.20
2023-05-09T11:19:56.600Z,2.30
2023-05-09T11:22:28.289Z,3.13
2023-05-09T11:27:45.309Z,3.45
2023-05-09T11:30:14.568Z,2.53
2023-05-09T11:32:43.135Z,3.22
2023-05-09T11:35:10.317Z,2.80
2023-05-09T11:37:39.820Z,2.70
2023-05-09T11:40:06.840Z,2.83
2023-05-09T11:42:33.580Z,2.40
2023-05-09T11:49:56.194Z,2.45
2023-05-09T11:52:22.864Z,2.40
2023-05-09T11:57:19.841Z,2.85
2023-05-09T11:59:46.697Z,2.58
2023-05-09T12:02:13.722Z,2.70
2023-05-09T12:07:07.643Z,2.67
2023-05-09T12:09:35.219Z,2.63
2023-05-09T12:12:02.602Z,2.95
2023-05-09T12:14:33.429Z,2.70
2023-05-09T12:19:28.865Z,2.88
2023-05-09T12:22:07.052Z,2.80
2023-05-09T12:24:35.704Z,2.53
2023-05-09T12:27:02.417Z,3.17
2023-05-09T12:29:30.896Z,2.40
2023-05-09T12:31:58.147Z,2.78
2023-05-09T12:34:25.047Z,2.83
2023-05-09T12:39:22.108Z,2.75
2023-05-09T12:41:57.912Z,3.72
2023-05-09T12:44:30.146Z,2.92
2023-05-09T12:47:01.432Z,2.53
2023-05-09T12:51:57.813Z,2.83
2023-05-09T12:54:25.579Z,3.15
2023-05-09T12:59:28.617Z,4.00
2023-05-09T13:06:50.749Z,2.53
2023-05-09T13:09:18.330Z,2.80
2023-05-09T13:11:45.462Z,2.42
2023-05-09T13:14:12.148Z,3.50
2023-05-09T13:16:39.164Z,3.17
2023-05-09T13:19:05.913Z,2.88
2023-05-09T13:21:33.049Z,3.10
2023-05-09T13:28:54.322Z,2.30
2023-05-09T13:33:50.935Z,2.67
2023-05-09T13:38:45.926Z,2.60
2023-05-09T13:41:13.632Z,2.90
2023-05-09T13:43:42.668Z,3.58
2023-05-09T13:46:09.526Z,2.92
2023-05-09T13:48:36.246Z,2.92
2023-05-09T13:51:03.918Z,2.97
2023-05-09T13:53:30.697Z,2.25
2023-05-09T13:58:24.444Z,2.85
2023-05-09T14:00:51.658Z,2.95
2023-05-09T14:03:19.820Z,2.25
2023-05-09T14:08:15.099Z,3.10
2023-05-09T14:15:36.124Z,2.75
2023-05-09T14:20:29.784Z,2.65
2023-05-09T14:22:59.862Z,2.25
2023-05-09T14:25:26.986Z,2.72
2023-05-09T14:27:53.835Z,2.17
2023-05-09T14:30:20.543Z,3.45
2023-05-09T14:32:47.480Z,2.65
2023-05-09T14:35:14.162Z,2.75
2023-05-09T14:40:09.107Z,2.80
2023-05-09T14:42:37.045Z,2.50
2023-05-09T14:47:31.874Z,2.50
2023-05-09T14:49:58.725Z,2.70
2023-05-09T14:52:25.593Z,2.50
2023-05-09T14:54:52.217Z,3.00
2023-05-09T14:57:19.013Z,3.22
2023-05-09T15:02:12.696Z,2.83
2023-05-09T15:04:41.436Z,2.60
2023-05-09T15:07:08.524Z,3.03
2023-05-09T15:09:35.184Z,3.03
2023-05-09T15:12:01.836Z,2.60
2023-05-09T15:14:28.436Z,2.90
2023-05-09T15:16:57.204Z,3.45
2023-05-09T15:19:23.846Z,3.28
2023-05-09T15:21:50.532Z,2.95
2023-05-09T15:24:17.247Z,2.50
2023-05-09T15:31:38.092Z,3.25
2023-05-09T15:34:04.845Z,3.55
2023-05-09T15:36:33.954Z,2.92
2023-05-09T15:43:55.431Z,3.20
2023-05-09T15:48:49.377Z,2.95
2023-05-09T15:51:16.129Z,2.42
2023-05-09T15:53:42.958Z,3.38
2023-05-09T15:58:36.981Z,3.28
2023-05-09T16:01:06.298Z,2.95
2023-05-09T16:03:33.187Z,3.00
2023-05-09T16:05:59.931Z,3.03
2023-05-09T16:08:26.661Z,2.70
2023-05-09T16:10:53.295Z,4.03
2023-05-09T16:13:20.045Z,4.22
2023-05-09T16:15:48.261Z,2.92
2023-05-09T16:18:14.978Z,2.78
2023-05-09T16:23:11.710Z,3.55
2023-05-09T16:25:38.454Z,3.33
2023-05-09T16:30:33.913Z,3.17
2023-05-09T16:35:28.567Z,3.45
2023-05-09T16:37:55.262Z,3.25
2023-05-09T16:40:22.239Z,3.30
2023-05-09T16:45:16.462Z,3.92
2023-05-09T16:47:43.143Z,3.33
2023-05-09T16:50:10.811Z,3.42
2023-05-09T16:52:37.857Z,4.22
2023-05-09T16:55:04.813Z,3.85
2023-05-09T16:59:58.669Z,4.35
2023-05-09T17:07:20.253Z,3.95
2023-05-09T17:09:48.450Z,3.85
2023-05-09T17:12:18.244Z,3.22
2023-05-09T17:14:45.483Z,3.35
2023-05-09T17:24:34.928Z,5.00
2023-05-09T17:29:30.769Z,3.13
2023-05-09T17:34:29.036Z,4.13
2023-05-09T17:39:23.585Z,4.30
2023-05-09T17:44:17.471Z,3.92
2023-05-09T17:46:44.333Z,4.10
2023-05-09T17:49:14.172Z,4.28
2023-05-09T17:51:41.336Z,5.78
2023-05-09T17:54:08.199Z,6.22
2023-05-09T17:56:34.834Z,5.00
2023-05-09T18:01:28.649Z,5.00
2023-05-09T18:06:22.384Z,4.47
2023-05-09T18:13:43.268Z,4.47
2023-05-09T18:16:10.061Z,5.18
2023-05-09T18:18:36.714Z,4.55
2023-05-09T18:21:05.118Z,5.07
2023-05-09T18:23:31.792Z,3.95
2023-05-09T18:25:58.535Z,5.15
2023-05-09T18:33:25.490Z,4.57
2023-05-09T18:35:53.132Z,4.15
2023-05-09T18:38:19.904Z,4.65
2023-05-09T18:40:46.999Z,5.20
2023-05-09T18:43:13.864Z,3.42
2023-05-09T18:45:45.059Z,5.07
2023-05-09T18:50:39.252Z,5.32
2023-05-09T18:53:06.130Z,4.78
2023-05-09T18:55:32.749Z,3.00
2023-05-09T18:57:59.434Z,6.07
2023-05-09T19:00:26.169Z,4.47
2023-05-09T19:02:52.877Z,3.70
2023-05-09T19:10:18.251Z,3.83
2023-05-09T19:12:45.202Z,4.57
2023-05-09T19:17:39.334Z,3.47
2023-05-09T19:22:33.398Z,4.05
2023-05-09T19:25:00.069Z,3.80
2023-05-09T19:27:27.193Z,4.18
2023-05-09T19:29:54.220Z,4.10
2023-05-09T19:32:20.896Z,5.95
2023-05-09T19:34:47.575Z,4.03
2023-05-09T19:37:14.212Z,3.03
2023-05-09T19:39:40.920Z,4.05
2023-05-09T19:42:08.272Z,9.77
2023-05-09T19:44:34.956Z,5.70
2023-05-09T19:47:05.277Z,5.45
2023-05-09T19:49:32.857Z,5.70
2023-05-09T19:51:59.546Z,4.65
2023-05-09T19:54:27.117Z,4.45
2023-05-09T19:56:53.769Z,4.35
2023-05-09T19:59:20.402Z,3.65
2023-05-09T20:01:47.061Z,5.50
2023-05-09T20:04:13.843Z,4.03
2023-05-09T20:11:34.945Z,4.93
2023-05-09T20:14:01.572Z,4.45
2023-05-09T20:16:28.623Z,4.55
2023-05-09T20:18:55.828Z,3.80
2023-05-09T20:21:22.466Z,4.22
2023-05-09T20:23:49.171Z,4.43
2023-05-09T20:28:42.871Z,4.50
2023-05-09T20:31:09.568Z,6.00
2023-05-09T20:33:36.255Z,4.03
2023-05-09T20:36:02.939Z,6.55
2023-05-09T20:40:56.553Z,6.50
2023-05-09T20:43:23.177Z,3.50
2023-05-09T20:45:50.206Z,4.38
2023-05-09T20:48:17.294Z,3.42
2023-05-09T20:50:43.954Z,4.00
2023-05-09T20:53:10.585Z,5.38
2023-05-09T20:55:37.251Z,4.65
2023-05-09T20:58:03.858Z,5.53
2023-05-09T21:00:30.588Z,8.63
2023-05-09T21:02:58.766Z,7.25
2023-05-09T21:05:25.644Z,5.22
2023-05-09T21:10:19.455Z,4.22
2023-05-09T21:12:46.181Z,4.30
2023-05-09T21:15:13.999Z,3.75
2023-05-09T21:20:08.087Z,5.05
2023-05-09T21:22:34.784Z,3.60
2023-05-09T21:25:01.451Z,3.67
2023-05-09T21:27:29.872Z,4.00
2023-05-09T21:29:56.498Z,4.07
2023-05-09T21:32:23.260Z,3.60
2023-05-09T21:34:50.170Z,3.72
2023-05-09T21:37:16.781Z,4.40
2023-05-09T21:39:43.440Z,4.13
2023-05-09T21:42:10.097Z,4.10
2023-05-09T21:44:36.779Z,4.85
2023-05-09T21:51:57.261Z,4.45
2023-05-09T21:54:23.893Z,4.30
2023-05-09T21:56:50.545Z,4.57
2023-05-09T21:59:20.883Z,3.85
2023-05-09T22:01:47.906Z,5.28
2023-05-09T22:04:14.896Z,3.85
2023-05-09T22:06:42.760Z,4.18
2023-05-09T22:09:09.927Z,4.38
2023-05-09T22:14:03.834Z,3.80
2023-05-09T22:18:57.561Z,4.82
2023-05-09T22:21:24.273Z,5.35
2023-05-09T22:23:50.935Z,5.32
2023-05-09T22:26:17.607Z,5.00
2023-05-09T22:31:11.151Z,4.63
2023-05-09T22:33:37.824Z,5.97
2023-05-09T22:36:05.182Z,3.75
2023-05-09T22:38:31.916Z,4.63
2023-05-09T22:40:58.604Z,4.65
2023-05-09T22:43:28.774Z,4.45
2023-05-09T22:46:00.518Z,6.57
2023-05-09T22:48:29.013Z,5.00
2023-05-09T22:50:55.641Z,4.00
2023-05-09T22:53:22.317Z,4.65
2023-05-09T22:55:49.050Z,4.32
2023-05-09T22:58:15.684Z,4.30
2023-05-09T23:00:42.322Z,5.07
2023-05-09T23:03:09.095Z,4.47
2023-05-09T23:05:36.224Z,5.18
2023-05-09T23:08:02.883Z,5.00
2023-05-09T23:10:29.716Z,4.57
2023-05-09T23:12:56.489Z,3.95
2023-05-09T23:15:23.159Z,3.92
2023-05-09T23:20:16.860Z,5.18
2023-05-09T23:22:43.694Z,4.47
2023-05-09T23:25:10.420Z,4.80
2023-05-09T23:27:37.176Z,5.47
2023-05-09T23:30:04.858Z,4.95
2023-05-09T23:32:31.835Z,4.93
2023-05-09T23:34:58.503Z,4.72
2023-05-09T23:37:25.170Z,5.40
2023-05-09T23:39:51.831Z,4.13
2023-05-09T23:47:12.464Z,4.63
2023-05-09T23:49:39.133Z,4.50
2023-05-09T23:52:05.995Z,5.05
2023-05-09T23:54:32.638Z,5.13
2023-05-09T23:56:59.305Z,4.15
2023-05-09T23:59:25.962Z,4.82
